Achilles, Virginia
Current Conditions -  °F | °C
As of 12:54 AM on Saturday 01 Nov 2014 (Local Time) from KPHF Reporting Station
Clear Clear  
Wind Chill: 44°   Ceiling: Unl
Heat Index: 46°   Visibility: 10mi
Dew Point: 40°   Wind: 5mph
Humidity: 79%   Direction: 350°N
Pressure: 29.76"   Gusts: NA
Location:  37.28°N, 76.44°W
Report Text: KPHF 010454Z 35004KT 10SM CLR 08/04 A2976 RMK AO2 SLP076 T00780044 401720078
Loading
Personal Weather Stations






























Interactive Weather Map
Tropical Storm Tracking
New forecast layout! Learn more

10-Day Weather Forecast

Advertisements
Track Severe Weather on mobile